Aeroporto :
LOGIN :

Iscrizione | Disclaimer

   EN    FR    IT 

 










Sommario :    VFR   VFR Marginale   IFR   IFR Intensivo   IFR Molto Intensivo
Visibilità : 
Base nubi : 
>= 8 km
>= 3000ft
5 / 8 km
1000 / 3000 ft
1500m / 5 km
500 / 1000 ft
800 / 1500m
200 / 500 ft
< 800m
< 200 ft
Simboli :   Temporali  Nebbia  Neve Forte  Precipitazioni Forti  Vento > 20 kt
SIGMETs :   Varie  Temporali  Ghiacco  Turbolenza  Onda orograficha  Ceneri Vulcaniche






- Altitudine del aeroporto : 376 ft


LHKE - Kecskemét

ULTIMO METAR :
  • 240845Z VRB02KT 7000 -SHRA BKN006 SCT010TCU OVC018 10/08 Q1003 TEMPO NSW RMK YLO

METARs OBSOLETI :
  • 240815Z 04003KT 010V080 7000 VCSH BKN006 SCT010TCU OVC018 10/09 Q1003 TEMPO -SHRA RMK YLO
  • 240745Z 02004KT 6000 VCSH BKN005 FEW010TCU OVC015 09/09 Q1003 TEMPO -SHRA RMK YLO
  • 240715Z 02004KT 340V060 6000 BKN005 OVC018 09/09 Q1003 RESHRA TEMPO -RA -SHRA RMK YLO
  • 240645Z 02003KT 340V070 6000 -SHRA BKN005 FEW012TCU OVC013 09/09 Q1003 TEMPO NSW RMK YLO
  • 240615Z 03004KT 5000 -SHRA BKN004 SCT010TCU OVC022 09/08 Q1003 TEMPO NSW BKN005 OVC010 RMK YLO
  • 240554Z 04004KT 360V070 5000 -SHRA BKN004 SCT011TCU BKN016 09/08 Q1003 TEMPO 3000 SHRA RMK YLO
  • 240545Z 04004KT 010V070 5000 -SHRA BKN004 OVC027 09/08 Q1003 TEMPO 3000 SHRA RMK YLO
  • 240529Z 03005KT 360V070 5000 SHRA BKN004 SCT011TCU OVC015 09/08 Q1003 TEMPO 3000 RMK YLO
  • 240515Z 02006KT 340V060 7000 -RA BKN004 OVC020 09/08 Q1003 TEMPO 5000 -SHRA BR RMK YLO
  • 240445Z 01004KT 340V050 7000 -RA BKN003 OVC020 09/09 Q1003 TEMPO 5000 -RA BR RMK YLO
  • 240415Z 03004KT 360V060 5000 -RA BR BKN003 OVC020 09/09 Q1003 TEMPO 3000 RMK YLO
  • 240345Z 04005KT 360V070 7000 -RA BKN003 OVC020 09/09 Q1003 NOSIG RMK YLO

TAF TAF LHKE
Valido dal 24 a 09 ore il 24 a 18 ore UTC


240815Z 2409/2418 01004KT 9999 BKN010 OVC020
TEMPO 2409/2411 VRB03KT 7000 -SHRA BKN006 SCT012TCU OVC015
BECMG 2411/2413 26010KT BKN014 BKN025
TEMPO 2411/2415 29012KT 8000 -SHRA BKN010 SCT018TCU BKN025
BECMG 2415/2418 25006KT SCT015 OVC025



MetMap, La meteo Aeronautica in un colpo d'occhio ! - Copyright ORBIFLY Dicembre 2007 - Disclaimer

ORBIFLY MET'MAP TEAM :

Programmazione e sviluppo : Alexandra Zaïnal
Concezione : Baudouin d'Aumeries
Supporto tecnico e logistico : Manuel Goepfert
Aiuto : Marc-Olivier Méhu
Aiuto per la traduzione : Arnaldo La Scala




FONTI E CREDITI :

   NOAA